Aérodrome :
LOGIN :

S'inscrire | Disclaimer

   EN    FR    IT 

 










Légende :    VFR   VFR Marginal   IFR   IFR Intensif   IFR Très Intensif
Visi : 
Plafond : 
>= 8 km
>= 3000ft
5 à 8 km
1000 à 3000 ft
1500m à 5 km
500 à 1000 ft
800 à 1500m
200 à 500 ft
< 800m
< 200 ft
Symboles :   Orages  Brouillard  Fortes neiges  Fortes précipitations  Vent > 20 kt
SIGMETs :   Divers  Orages  Givrage  Turbulence  Onde Orograph.  Cendres Volcan.







- Altitude de l'aérodrome : 219 ft
- Code IATA : DNR
- Voir les cartes d'approche


LFRD - Dinard

DERNIER METAR :
  • 200800Z AUTO 05007KT 020V080 7000 FEW014 SCT023 OVC043 06/05 Q1013 TEMPO SHRA

METARs EXPIRÉS :
  • 200730Z AUTO 05007KT 9000 SCT009 BKN016 OVC046 06/05 Q1012 TEMPO SHRA OVC002
  • 200700Z AUTO 05007KT 7000 BKN006 OVC011 06/06 Q1012 TEMPO SHRA BECMG BKN020
  • 200630Z AUTO 05005KT 6000 BKN007 OVC043 07/06 Q1011 TEMPO SHRA VV///
  • 200600Z AUTO 04007KT 7000 BKN006 BKN010 BKN020 07/06 Q1011 TEMPO SHRA VV///
  • 200530Z AUTO VRB02KT 9000 SCT010 BKN015 OVC042 06/05 Q1010 TEMPO SHRA VV///

TAF AMD TAF LFRD
Valide du 20 à 07h jusqu'au 21 à 06h UTC


200745Z 2007/2106 02005KT 9999 BKN030
TEMPO 2007/2009 BKN007
PROB30
TEMPO 2007/2012 5000 SHRA
BECMG 2010/2012 02010KT
ATIS : +33 2 99 16 81 50
Pas de NOTAMs connus pour ce terrain.



MET'MAP, la Météo Aéronautique d'un coup d'oeil ! - Copyright ORBIFLY Décembre 2007 - Disclaimer

ORBIFLY MET'MAP TEAM :

Programmation & Développement : Alexandra Zaïnal
Conception & Développement : Baudouin d'Aumeries
Co-Programmation & Développement : Marc-Olivier Méhu
Soutien technique & logistique : Manuel Goepfert

Contact : metmap@orbifly.com




SOURCES & CREDITS :

   NOAA